Alexander 3 — SW6137 — position and weather

sailwx.info

Track history (hours):
 
Tides and Currents Weather Stations Pressure Air Temp Water Temp Dewpoint Dewpoint Depression Visibility Wind Speed Wind Dir Waves Ship Positions

Alexander 3

Last reported at 2015-Jan-25 15:33 UTC. Time now 2015-Jan-25 16:20 UTC.
Position N 37°57' E 023°36'.

Length 38 m; draft 5.6 m.

Type: Tug. MMSI: 240733000.

Date/timePositionNaut miles runAvg speedWind from/ knotsBaromVisibWave heightAir tempDewpointWater temp
2015-Jan-25 15:33N 37°57' E 023°36'0 0.2
2015-Jan-25 14:33N 37°57' E 023°36'0 0.4
2015-Jan-25 13:33N 37°57' E 023°36'2 1.9
2015-Jan-25 12:33N 37°56' E 023°38'0 0.1
2015-Jan-25 11:24N 37°56' E 023°38'0 0.0
2015-Jan-25 07:17N 37°56' E 023°38'2 2.9
2015-Jan-25 06:33N 37°57' E 023°35'0 0.5
2015-Jan-25 05:33N 37°57' E 023°36'1 0.2
2015-Jan-25 02:04N 37°57' E 023°37'0 0.0
2015-Jan-25 01:33N 37°57' E 023°37'0 0.0
2015-Jan-25 00:33N 37°57' E 023°37'0 0.0
2015-Jan-24 23:33N 37°57' E 023°37'5 5.5
2015-Jan-24 22:33N 38°00' E 023°31'6 5.6
2015-Jan-24 21:33N 37°58' E 023°24'0 0.0
2015-Jan-24 20:33N 37°58' E 023°24'0 0.0
2015-Jan-24 19:33N 37°58' E 023°24'0 0.0
2015-Jan-24 18:33N 37°58' E 023°24'0 0.0
2015-Jan-24 17:33N 37°58' E 023°24'0 0.0
2015-Jan-24 16:33N 37°58' E 023°24'0 0.0
2015-Jan-24 15:33N 37°58' E 023°24'0 0.0
2015-Jan-24 14:33N 37°58' E 023°24'0 0.0
2015-Jan-24 13:33N 37°58' E 023°24'0 0.0
2015-Jan-24 12:33N 37°58' E 023°24'0 0.0
2015-Jan-24 11:33N 37°58' E 023°24'0 0.0
2015-Jan-24 10:33N 37°58' E 023°24'0 0.0
2015-Jan-24 09:33N 37°58' E 023°24'0 0.0
2015-Jan-24 08:33N 37°58' E 023°24'0 0.0
2015-Jan-24 07:33N 37°58' E 023°24'0 0.0
2015-Jan-24 06:33N 37°58' E 023°24'0 0.0
2015-Jan-24 05:33N 37°58' E 023°24'0 0.0
2015-Jan-24 04:33N 37°58' E 023°24'0 0.0
2015-Jan-24 03:33N 37°58' E 023°24'0 0.0
2015-Jan-24 02:33N 37°58' E 023°24'0 0.0
2015-Jan-24 01:33N 37°58' E 023°24'0 0.0
2015-Jan-24 00:33N 37°58' E 023°24'0 0.0
2015-Jan-23 23:33N 37°58' E 023°24'0 0.0
2015-Jan-23 22:33N 37°58' E 023°24'0 0.0
2015-Jan-23 21:33N 37°58' E 023°24'0 0.0
2015-Jan-23 20:33N 37°58' E 023°24'0 0.0
2015-Jan-23 19:33N 37°58' E 023°24'0 0.0
2015-Jan-23 18:33N 37°58' E 023°24'0 0.0
2015-Jan-23 17:33N 37°58' E 023°24'0 0.0
2015-Jan-23 16:33N 37°58' E 023°24'0 0.0
2015-Jan-23 15:33N 37°58' E 023°24'0 0.0
2015-Jan-23 14:33N 37°58' E 023°24'0 0.0
2015-Jan-23 13:33N 37°58' E 023°24'0 0.0
2015-Jan-23 12:33N 37°58' E 023°24'0 0.0
2015-Jan-23 11:33N 37°58' E 023°24'0 0.0
2015-Jan-23 10:33N 37°58' E 023°24'0 0.0
2015-Jan-23 09:33N 37°58' E 023°24'0 0.0
2015-Jan-23 08:33N 37°58' E 023°24'0 0.0
2015-Jan-23 07:33N 37°58' E 023°24'0 0.0
2015-Jan-23 06:33N 37°58' E 023°24'0 0.0
2015-Jan-23 05:33N 37°58' E 023°24'0 0.0
2015-Jan-23 04:33N 37°58' E 023°24'0 0.0
2015-Jan-23 03:33N 37°58' E 023°24'0 0.0
2015-Jan-23 02:33N 37°58' E 023°24'0 0.0
2015-Jan-23 01:33N 37°58' E 023°24'0 0.0
2015-Jan-23 00:33N 37°58' E 023°24'0 0.0
2015-Jan-22 23:33N 37°58' E 023°24'0 0.0
2015-Jan-22 22:33N 37°58' E 023°24'0 0.0
2015-Jan-22 21:33N 37°58' E 023°24'0 0.0
2015-Jan-22 20:33N 37°58' E 023°24'0 0.0
2015-Jan-22 19:33N 37°58' E 023°24'0 0.0
2015-Jan-22 18:33N 37°58' E 023°24'1 1.1
2015-Jan-22 17:33N 37°58' E 023°23'0 0.1
2015-Jan-22 16:33N 37°58' E 023°23'1 0.6
2015-Jan-22 15:33N 37°58' E 023°23'1 1.3
2015-Jan-22 14:33N 37°58' E 023°24'0 0.0
2015-Jan-22 13:33N 37°58' E 023°24'0 0.0
2015-Jan-22 12:33N 37°58' E 023°24'0 0.0
2015-Jan-22 11:33N 37°58' E 023°24'0 0.0
2015-Jan-22 10:33N 37°58' E 023°24'0 0.0
2015-Jan-22 09:33N 37°58' E 023°24'0 0.0
2015-Jan-22 08:33N 37°58' E 023°24'0 0.0
2015-Jan-22 07:33N 37°58' E 023°24'0 0.0
2015-Jan-22 06:33N 37°58' E 023°24'0 0.0
2015-Jan-22 05:33N 37°58' E 023°24'0 0.0
2015-Jan-22 04:33N 37°58' E 023°24'0 0.0
2015-Jan-22 03:33N 37°58' E 023°24'0 0.0
2015-Jan-22 02:33N 37°58' E 023°24'0 0.0
2015-Jan-22 01:33N 37°58' E 023°24'0 0.0
2015-Jan-22 00:33N 37°58' E 023°24'0 0.0
2015-Jan-21 23:33N 37°58' E 023°24'0 0.0
2015-Jan-21 22:50N 37°58' E 023°24'0 0.0
2015-Jan-21 22:46N 37°58' E 023°24'0 0.0
2015-Jan-21 22:33N 37°58' E 023°24'0 0.0
2015-Jan-21 21:33N 37°58' E 023°24'0 0.0
2015-Jan-21 20:33N 37°58' E 023°24'0 0.0
2015-Jan-21 19:33N 37°58' E 023°24'0 0.0
2015-Jan-21 18:33N 37°58' E 023°24'0 0.0
2015-Jan-21 17:33N 37°58' E 023°24'0 0.0
2015-Jan-21 16:33N 37°58' E 023°24'0 0.0
2015-Jan-21 15:33N 37°58' E 023°24'0 0.0
2015-Jan-21 14:33N 37°58' E 023°24'0 0.0
2015-Jan-21 13:33N 37°58' E 023°24'0 0.0
2015-Jan-21 12:33N 37°58' E 023°24'0 0.0
2015-Jan-21 11:33N 37°58' E 023°24'0 0.0
2015-Jan-21 10:33N 37°58' E 023°24'0 0.0
2015-Jan-21 09:33N 37°58' E 023°24'0 0.0
2015-Jan-21 08:33N 37°58' E 023°24'1 1.1
2015-Jan-21 07:33N 37°58' E 023°23'0 0.3
2015-Jan-21 06:33N 37°58' E 023°23'2 1.7
2015-Jan-21 05:33N 37°56' E 023°23'4 4.5
2015-Jan-21 04:33N 37°52' E 023°26'8 8.2
2015-Jan-21 03:33N 37°56' E 023°35'2 0.2
2015-Jan-20 13:33N 37°56' E 023°38'2 1.7
2015-Jan-20 12:33N 37°57' E 023°36'2 1.7
2015-Jan-20 11:33N 37°56' E 023°38'0 0.0
2015-Jan-20 10:33N 37°56' E 023°38'0 0.0
2015-Jan-20 09:33N 37°56' E 023°38'0 0.0
2015-Jan-20 08:33N 37°56' E 023°38'0 0.0
2015-Jan-20 07:33N 37°56' E 023°38'0 0.4
2015-Jan-20 06:34N 37°56' E 023°37'2 2.2
2015-Jan-20 05:33N 37°56' E 023°35'2 2.3
2015-Jan-20 04:33N 37°57' E 023°37'0 0.0
2015-Jan-20 03:33N 37°57' E 023°37'0 0.0
2015-Jan-20 02:33N 37°57' E 023°37'0 0.0
2015-Jan-20 01:33N 37°57' E 023°37'0 0.0
2015-Jan-20 00:34N 37°57' E 023°37'0 0.0
2015-Jan-19 23:33N 37°57' E 023°37'0 0.0
2015-Jan-19 22:33N 37°57' E 023°37'8 7.5
2015-Jan-19 21:33N 38°00' E 023°28'4 4.1
2015-Jan-19 20:33N 37°57' E 023°24'1 1.3
2015-Jan-19 19:33N 37°59' E 023°25'7 6.8
2015-Jan-19 18:33N 38°02' E 023°32'0 0.0
2015-Jan-19 17:33N 38°02' E 023°32'0 0.0
2015-Jan-19 16:33N 38°02' E 023°32'3 0.8
2015-Jan-19 13:33N 38°01' E 023°36'0 0.0
2015-Jan-19 12:33N 38°01' E 023°36'0 0.0
2015-Jan-19 11:33N 38°01' E 023°36'0 0.0
2015-Jan-19 10:32N 38°01' E 023°36'0 0.0
2015-Jan-19 09:32N 38°01' E 023°36'0 0.0
2015-Jan-19 08:33N 38°01' E 023°36'0 0.0
2015-Jan-19 07:32N 38°01' E 023°36'4 0.2
2015-Jan-18 06:29N 37°58' E 023°33'2 2.7
2015-Jan-18 05:33N 37°56' E 023°35'1 1.2
2015-Jan-18 04:33N 37°57' E 023°35'2 0.1
2015-Jan-17 12:33N 37°56' E 023°37'1 1.5
2015-Jan-17 11:33N 37°57' E 023°37'0 0.0
2015-Jan-17 10:33N 37°57' E 023°37'1 1.1
2015-Jan-17 09:34N 37°57' E 023°35'0 0.1
2015-Jan-17 08:33N 37°57' E 023°35'0 0.3
2015-Jan-17 07:33N 37°57' E 023°35'0 0.0
2015-Jan-17 06:33N 37°57' E 023°35'1 1.3
2015-Jan-17 05:33N 37°56' E 023°35'2 1.5
2015-Jan-17 04:33N 37°56' E 023°37'2 0.2
2015-Jan-16 12:26N 37°57' E 023°35'0 0.2
2015-Jan-16 11:33N 37°57' E 023°35'1 0.6
2015-Jan-16 10:33N 37°57' E 023°36'0 0.4
2015-Jan-16 09:33N 37°57' E 023°35'1 1.2
2015-Jan-16 08:33N 37°56' E 023°36'1 1.4
2015-Jan-16 07:33N 37°56' E 023°37'0 0.1
2015-Jan-16 06:27N 37°56' E 023°37'0 0.0
2015-Jan-16 05:34N 37°56' E 023°37'0 0.0
2015-Jan-16 04:34N 37°56' E 023°37'  
Track history (hours):
 
Tides and Currents Weather Stations Pressure Air Temp Water Temp Dewpoint Dewpoint Depression Visibility Wind Speed Wind Dir Waves Ship Positions

Alexander 3

Last reported at 2015-Jan-25 15:33 UTC. Time now 2015-Jan-25 16:20 UTC.
Position N 37°57' E 023°36'.

Length 38 m; draft 5.6 m.

Type: Tug. MMSI: 240733000.

Date/timePositionNaut miles runAvg speedWind from/ knotsBaromVisibWave heightAir tempDewpointWater temp
2015-Jan-25 15:33N 37°57' E 023°36'0 0.2
2015-Jan-25 14:33N 37°57' E 023°36'0 0.4
2015-Jan-25 13:33N 37°57' E 023°36'2 1.9
2015-Jan-25 12:33N 37°56' E 023°38'0 0.1
2015-Jan-25 11:24N 37°56' E 023°38'0 0.0
2015-Jan-25 07:17N 37°56' E 023°38'2 2.9
2015-Jan-25 06:33N 37°57' E 023°35'0 0.5
2015-Jan-25 05:33N 37°57' E 023°36'1 0.2
2015-Jan-25 02:04N 37°57' E 023°37'0 0.0
2015-Jan-25 01:33N 37°57' E 023°37'0 0.0
2015-Jan-25 00:33N 37°57' E 023°37'0 0.0
2015-Jan-24 23:33N 37°57' E 023°37'5 5.5
2015-Jan-24 22:33N 38°00' E 023°31'6 5.6
2015-Jan-24 21:33N 37°58' E 023°24'0 0.0
2015-Jan-24 20:33N 37°58' E 023°24'0 0.0
2015-Jan-24 19:33N 37°58' E 023°24'0 0.0
2015-Jan-24 18:33N 37°58' E 023°24'0 0.0
2015-Jan-24 17:33N 37°58' E 023°24'0 0.0
2015-Jan-24 16:33N 37°58' E 023°24'0 0.0
2015-Jan-24 15:33N 37°58' E 023°24'0 0.0
2015-Jan-24 14:33N 37°58' E 023°24'0 0.0
2015-Jan-24 13:33N 37°58' E 023°24'0 0.0
2015-Jan-24 12:33N 37°58' E 023°24'0 0.0
2015-Jan-24 11:33N 37°58' E 023°24'0 0.0
2015-Jan-24 10:33N 37°58' E 023°24'0 0.0
2015-Jan-24 09:33N 37°58' E 023°24'0 0.0
2015-Jan-24 08:33N 37°58' E 023°24'0 0.0
2015-Jan-24 07:33N 37°58' E 023°24'0 0.0
2015-Jan-24 06:33N 37°58' E 023°24'0 0.0
2015-Jan-24 05:33N 37°58' E 023°24'0 0.0
2015-Jan-24 04:33N 37°58' E 023°24'0 0.0
2015-Jan-24 03:33N 37°58' E 023°24'0 0.0
2015-Jan-24 02:33N 37°58' E 023°24'0 0.0
2015-Jan-24 01:33N 37°58' E 023°24'0 0.0
2015-Jan-24 00:33N 37°58' E 023°24'0 0.0
2015-Jan-23 23:33N 37°58' E 023°24'0 0.0
2015-Jan-23 22:33N 37°58' E 023°24'0 0.0
2015-Jan-23 21:33N 37°58' E 023°24'0 0.0
2015-Jan-23 20:33N 37°58' E 023°24'0 0.0
2015-Jan-23 19:33N 37°58' E 023°24'0 0.0
2015-Jan-23 18:33N 37°58' E 023°24'0 0.0
2015-Jan-23 17:33N 37°58' E 023°24'0 0.0
2015-Jan-23 16:33N 37°58' E 023°24'0 0.0
2015-Jan-23 15:33N 37°58' E 023°24'0 0.0
2015-Jan-23 14:33N 37°58' E 023°24'0 0.0
2015-Jan-23 13:33N 37°58' E 023°24'0 0.0
2015-Jan-23 12:33N 37°58' E 023°24'0 0.0
2015-Jan-23 11:33N 37°58' E 023°24'0 0.0
2015-Jan-23 10:33N 37°58' E 023°24'0 0.0
2015-Jan-23 09:33N 37°58' E 023°24'0 0.0
2015-Jan-23 08:33N 37°58' E 023°24'0 0.0
2015-Jan-23 07:33N 37°58' E 023°24'0 0.0
2015-Jan-23 06:33N 37°58' E 023°24'0 0.0
2015-Jan-23 05:33N 37°58' E 023°24'0 0.0
2015-Jan-23 04:33N 37°58' E 023°24'0 0.0
2015-Jan-23 03:33N 37°58' E 023°24'0 0.0
2015-Jan-23 02:33N 37°58' E 023°24'0 0.0
2015-Jan-23 01:33N 37°58' E 023°24'0 0.0
2015-Jan-23 00:33N 37°58' E 023°24'0 0.0
2015-Jan-22 23:33N 37°58' E 023°24'0 0.0
2015-Jan-22 22:33N 37°58' E 023°24'0 0.0
2015-Jan-22 21:33N 37°58' E 023°24'0 0.0
2015-Jan-22 20:33N 37°58' E 023°24'0 0.0
2015-Jan-22 19:33N 37°58' E 023°24'0 0.0
2015-Jan-22 18:33N 37°58' E 023°24'1 1.1
2015-Jan-22 17:33N 37°58' E 023°23'0 0.1
2015-Jan-22 16:33N 37°58' E 023°23'1 0.6
2015-Jan-22 15:33N 37°58' E 023°23'1 1.3
2015-Jan-22 14:33N 37°58' E 023°24'0 0.0
2015-Jan-22 13:33N 37°58' E 023°24'0 0.0
2015-Jan-22 12:33N 37°58' E 023°24'0 0.0
2015-Jan-22 11:33N 37°58' E 023°24'0 0.0
2015-Jan-22 10:33N 37°58' E 023°24'0 0.0
2015-Jan-22 09:33N 37°58' E 023°24'0 0.0
2015-Jan-22 08:33N 37°58' E 023°24'0 0.0
2015-Jan-22 07:33N 37°58' E 023°24'0 0.0
2015-Jan-22 06:33N 37°58' E 023°24'0 0.0
2015-Jan-22 05:33N 37°58' E 023°24'0 0.0
2015-Jan-22 04:33N 37°58' E 023°24'0 0.0
2015-Jan-22 03:33N 37°58' E 023°24'0 0.0
2015-Jan-22 02:33N 37°58' E 023°24'0 0.0
2015-Jan-22 01:33N 37°58' E 023°24'0 0.0
2015-Jan-22 00:33N 37°58' E 023°24'0 0.0
2015-Jan-21 23:33N 37°58' E 023°24'0 0.0
2015-Jan-21 22:50N 37°58' E 023°24'0 0.0
2015-Jan-21 22:46N 37°58' E 023°24'0 0.0
2015-Jan-21 22:33N 37°58' E 023°24'0 0.0
2015-Jan-21 21:33N 37°58' E 023°24'0 0.0
2015-Jan-21 20:33N 37°58' E 023°24'0 0.0
2015-Jan-21 19:33N 37°58' E 023°24'0 0.0
2015-Jan-21 18:33N 37°58' E 023°24'0 0.0
2015-Jan-21 17:33N 37°58' E 023°24'0 0.0
2015-Jan-21 16:33N 37°58' E 023°24'0 0.0
2015-Jan-21 15:33N 37°58' E 023°24'0 0.0
2015-Jan-21 14:33N 37°58' E 023°24'0 0.0
2015-Jan-21 13:33N 37°58' E 023°24'0 0.0
2015-Jan-21 12:33N 37°58' E 023°24'0 0.0
2015-Jan-21 11:33N 37°58' E 023°24'0 0.0
2015-Jan-21 10:33N 37°58' E 023°24'0 0.0
2015-Jan-21 09:33N 37°58' E 023°24'0 0.0
2015-Jan-21 08:33N 37°58' E 023°24'1 1.1
2015-Jan-21 07:33N 37°58' E 023°23'0 0.3
2015-Jan-21 06:33N 37°58' E 023°23'2 1.7
2015-Jan-21 05:33N 37°56' E 023°23'4 4.5
2015-Jan-21 04:33N 37°52' E 023°26'8 8.2
2015-Jan-21 03:33N 37°56' E 023°35'2 0.2
2015-Jan-20 13:33N 37°56' E 023°38'2 1.7
2015-Jan-20 12:33N 37°57' E 023°36'2 1.7
2015-Jan-20 11:33N 37°56' E 023°38'0 0.0
2015-Jan-20 10:33N 37°56' E 023°38'0 0.0
2015-Jan-20 09:33N 37°56' E 023°38'0 0.0
2015-Jan-20 08:33N 37°56' E 023°38'0 0.0
2015-Jan-20 07:33N 37°56' E 023°38'0 0.4
2015-Jan-20 06:34N 37°56' E 023°37'2 2.2
2015-Jan-20 05:33N 37°56' E 023°35'2 2.3
2015-Jan-20 04:33N 37°57' E 023°37'0 0.0
2015-Jan-20 03:33N 37°57' E 023°37'0 0.0
2015-Jan-20 02:33N 37°57' E 023°37'0 0.0
2015-Jan-20 01:33N 37°57' E 023°37'0 0.0
2015-Jan-20 00:34N 37°57' E 023°37'0 0.0
2015-Jan-19 23:33N 37°57' E 023°37'0 0.0
2015-Jan-19 22:33N 37°57' E 023°37'8 7.5
2015-Jan-19 21:33N 38°00' E 023°28'4 4.1
2015-Jan-19 20:33N 37°57' E 023°24'1 1.3
2015-Jan-19 19:33N 37°59' E 023°25'7 6.8
2015-Jan-19 18:33N 38°02' E 023°32'0 0.0
2015-Jan-19 17:33N 38°02' E 023°32'0 0.0
2015-Jan-19 16:33N 38°02' E 023°32'3 0.8
2015-Jan-19 13:33N 38°01' E 023°36'0 0.0
2015-Jan-19 12:33N 38°01' E 023°36'0 0.0
2015-Jan-19 11:33N 38°01' E 023°36'0 0.0
2015-Jan-19 10:32N 38°01' E 023°36'0 0.0
2015-Jan-19 09:32N 38°01' E 023°36'0 0.0
2015-Jan-19 08:33N 38°01' E 023°36'0 0.0
2015-Jan-19 07:32N 38°01' E 023°36'4 0.2
2015-Jan-18 06:29N 37°58' E 023°33'2 2.7
2015-Jan-18 05:33N 37°56' E 023°35'1 1.2
2015-Jan-18 04:33N 37°57' E 023°35'2 0.1
2015-Jan-17 12:33N 37°56' E 023°37'1 1.5
2015-Jan-17 11:33N 37°57' E 023°37'0 0.0
2015-Jan-17 10:33N 37°57' E 023°37'1 1.1
2015-Jan-17 09:34N 37°57' E 023°35'0 0.1
2015-Jan-17 08:33N 37°57' E 023°35'0 0.3
2015-Jan-17 07:33N 37°57' E 023°35'0 0.0
2015-Jan-17 06:33N 37°57' E 023°35'1 1.3
2015-Jan-17 05:33N 37°56' E 023°35'2 1.5
2015-Jan-17 04:33N 37°56' E 023°37'2 0.2
2015-Jan-16 12:26N 37°57' E 023°35'0 0.2
2015-Jan-16 11:33N 37°57' E 023°35'1 0.6
2015-Jan-16 10:33N 37°57' E 023°36'0 0.4
2015-Jan-16 09:33N 37°57' E 023°35'1 1.2
2015-Jan-16 08:33N 37°56' E 023°36'1 1.4
2015-Jan-16 07:33N 37°56' E 023°37'0 0.1
2015-Jan-16 06:27N 37°56' E 023°37'0 0.0
2015-Jan-16 05:34N 37°56' E 023°37'0 0.0
2015-Jan-16 04:34N 37°56' E 023°37'  

Dump ship's entire track history